sensor_id;sensor_type;location;lat;lon;timestamp;P1;durP1;ratioP1;P2;durP2;ratioP2
35056;SDS011;21241;51.828;19.574;2023-11-22T00:02:00;13.60;;;12.30;;
35056;SDS011;21241;51.828;19.574;2023-11-22T00:04:28;13.30;;;12.10;;
35056;SDS011;21241;51.828;19.574;2023-11-22T00:06:57;14.20;;;12.90;;
35056;SDS011;21241;51.828;19.574;2023-11-22T00:09:24;16.30;;;14.80;;
35056;SDS011;21241;51.828;19.574;2023-11-22T00:11:52;13.30;;;12.20;;
35056;SDS011;21241;51.828;19.574;2023-11-22T00:14:20;13.60;;;12.40;;
35056;SDS011;21241;51.828;19.574;2023-11-22T00:16:49;13.90;;;12.60;;
35056;SDS011;21241;51.828;19.574;2023-11-22T00:19:17;13.50;;;12.30;;
35056;SDS011;21241;51.828;19.574;2023-11-22T00:21:49;13.10;;;11.90;;
35056;SDS011;21241;51.828;19.574;2023-11-22T00:24:17;12.80;;;11.70;;
35056;SDS011;21241;51.828;19.574;2023-11-22T00:26:46;13.40;;;12.20;;
35056;SDS011;21241;51.828;19.574;2023-11-22T00:29:14;15.40;;;14.00;;
35056;SDS011;21241;51.828;19.574;2023-11-22T00:31:42;13.80;;;12.50;;
35056;SDS011;21241;51.828;19.574;2023-11-22T00:34:12;15.10;;;13.90;;
35056;SDS011;21241;51.828;19.574;2023-11-22T00:36:42;15.60;;;14.10;;
35056;SDS011;21241;51.828;19.574;2023-11-22T00:39:10;16.10;;;14.80;;
35056;SDS011;21241;51.828;19.574;2023-11-22T00:41:41;14.20;;;12.70;;
35056;SDS011;21241;51.828;19.574;2023-11-22T00:44:09;16.70;;;15.40;;
35056;SDS011;21241;51.828;19.574;2023-11-22T00:46:37;14.70;;;13.40;;
35056;SDS011;21241;51.828;19.574;2023-11-22T00:49:05;14.20;;;13.00;;
35056;SDS011;21241;51.828;19.574;2023-11-22T00:51:34;12.60;;;11.50;;
35056;SDS011;21241;51.828;19.574;2023-11-22T00:54:02;15.10;;;13.90;;
35056;SDS011;21241;51.828;19.574;2023-11-22T00:56:30;14.50;;;13.10;;
35056;SDS011;21241;51.828;19.574;2023-11-22T00:58:58;13.80;;;12.50;;
35056;SDS011;21241;51.828;19.574;2023-11-22T01:01:27;12.00;;;10.90;;
35056;SDS011;21241;51.828;19.574;2023-11-22T01:03:57;14.60;;;13.40;;
35056;SDS011;21241;51.828;19.574;2023-11-22T01:06:25;12.40;;;11.20;;
35056;SDS011;21241;51.828;19.574;2023-11-22T01:08:53;13.10;;;12.10;;
35056;SDS011;21241;51.828;19.574;2023-11-22T01:11:21;11.80;;;10.60;;
35056;SDS011;21241;51.828;19.574;2023-11-22T01:13:49;13.30;;;12.10;;
35056;SDS011;21241;51.828;19.574;2023-11-22T01:16:17;12.10;;;11.10;;
35056;SDS011;21241;51.828;19.574;2023-11-22T01:18:45;12.90;;;11.90;;
35056;SDS011;21241;51.828;19.574;2023-11-22T01:21:15;12.90;;;11.70;;
35056;SDS011;21241;51.828;19.574;2023-11-22T01:23:43;14.50;;;13.30;;
35056;SDS011;21241;51.828;19.574;2023-11-22T01:26:12;12.90;;;11.80;;
35056;SDS011;21241;51.828;19.574;2023-11-22T01:28:42;14.30;;;13.10;;
35056;SDS011;21241;51.828;19.574;2023-11-22T01:31:12;12.10;;;11.00;;
35056;SDS011;21241;51.828;19.574;2023-11-22T01:33:41;14.70;;;13.40;;
35056;SDS011;21241;51.828;19.574;2023-11-22T01:36:09;12.30;;;11.20;;
35056;SDS011;21241;51.828;19.574;2023-11-22T01:38:36;14.50;;;13.10;;
35056;SDS011;21241;51.828;19.574;2023-11-22T01:41:07;12.60;;;11.40;;
35056;SDS011;21241;51.828;19.574;2023-11-22T01:43:34;14.40;;;13.10;;
35056;SDS011;21241;51.828;19.574;2023-11-22T01:46:03;11.90;;;10.80;;
35056;SDS011;21241;51.828;19.574;2023-11-22T01:48:31;13.30;;;12.20;;
35056;SDS011;21241;51.828;19.574;2023-11-22T01:50:59;11.90;;;10.90;;
35056;SDS011;21241;51.828;19.574;2023-11-22T01:53:28;13.70;;;12.50;;
35056;SDS011;21241;51.828;19.574;2023-11-22T01:55:57;11.40;;;10.40;;
35056;SDS011;21241;51.828;19.574;2023-11-22T01:58:26;12.40;;;11.40;;
35056;SDS011;21241;51.828;19.574;2023-11-22T02:00:54;11.60;;;10.60;;
35056;SDS011;21241;51.828;19.574;2023-11-22T02:03:23;13.20;;;12.00;;
35056;SDS011;21241;51.828;19.574;2023-11-22T02:05:51;11.40;;;10.50;;
35056;SDS011;21241;51.828;19.574;2023-11-22T02:08:20;11.90;;;10.90;;
35056;SDS011;21241;51.828;19.574;2023-11-22T02:10:58;12.90;;;11.80;;
35056;SDS011;21241;51.828;19.574;2023-11-22T02:13:30;12.50;;;11.40;;
35056;SDS011;21241;51.828;19.574;2023-11-22T02:15:58;13.90;;;12.80;;
35056;SDS011;21241;51.828;19.574;2023-11-22T02:18:30;11.90;;;10.80;;
35056;SDS011;21241;51.828;19.574;2023-11-22T02:20:59;13.50;;;12.40;;
35056;SDS011;21241;51.828;19.574;2023-11-22T02:23:28;12.50;;;11.30;;
35056;SDS011;21241;51.828;19.574;2023-11-22T02:25:56;13.10;;;12.00;;
35056;SDS011;21241;51.828;19.574;2023-11-22T02:28:24;11.70;;;10.60;;
35056;SDS011;21241;51.828;19.574;2023-11-22T02:30:52;12.60;;;11.50;;
35056;SDS011;21241;51.828;19.574;2023-11-22T02:33:20;11.90;;;10.80;;
35056;SDS011;21241;51.828;19.574;2023-11-22T02:35:48;13.50;;;12.50;;
35056;SDS011;21241;51.828;19.574;2023-11-22T02:38:17;12.60;;;11.40;;
35056;SDS011;21241;51.828;19.574;2023-11-22T02:40:46;13.70;;;12.60;;
35056;SDS011;21241;51.828;19.574;2023-11-22T02:43:14;12.10;;;11.00;;
35056;SDS011;21241;51.828;19.574;2023-11-22T02:45:42;13.90;;;12.80;;
35056;SDS011;21241;51.828;19.574;2023-11-22T02:48:12;12.60;;;11.50;;
35056;SDS011;21241;51.828;19.574;2023-11-22T02:50:41;12.70;;;11.70;;
35056;SDS011;21241;51.828;19.574;2023-11-22T02:53:11;11.40;;;10.40;;
35056;SDS011;21241;51.828;19.574;2023-11-22T02:55:40;12.10;;;11.00;;
35056;SDS011;21241;51.828;19.574;2023-11-22T02:58:08;12.90;;;11.70;;
35056;SDS011;21241;51.828;19.574;2023-11-22T03:00:36;12.10;;;11.00;;
35056;SDS011;21241;51.828;19.574;2023-11-22T03:03:04;11.00;;;9.90;;
35056;SDS011;21241;51.828;19.574;2023-11-22T03:05:37;12.30;;;11.20;;
35056;SDS011;21241;51.828;19.574;2023-11-22T03:08:06;13.90;;;12.80;;
35056;SDS011;21241;51.828;19.574;2023-11-22T03:10:35;12.60;;;11.50;;
35056;SDS011;21241;51.828;19.574;2023-11-22T03:13:04;13.90;;;12.70;;
35056;SDS011;21241;51.828;19.574;2023-11-22T03:15:32;12.40;;;11.30;;
35056;SDS011;21241;51.828;19.574;2023-11-22T03:18:00;13.10;;;12.10;;
35056;SDS011;21241;51.828;19.574;2023-11-22T03:20:29;11.80;;;10.70;;
35056;SDS011;21241;51.828;19.574;2023-11-22T03:22:58;13.80;;;12.60;;
35056;SDS011;21241;51.828;19.574;2023-11-22T03:25:29;12.40;;;11.30;;
35056;SDS011;21241;51.828;19.574;2023-11-22T03:27:57;12.50;;;11.50;;
35056;SDS011;21241;51.828;19.574;2023-11-22T03:30:25;11.10;;;10.10;;
35056;SDS011;21241;51.828;19.574;2023-11-22T03:32:52;12.70;;;11.70;;
35056;SDS011;21241;51.828;19.574;2023-11-22T03:35:22;11.40;;;10.40;;
35056;SDS011;21241;51.828;19.574;2023-11-22T03:37:50;11.40;;;10.50;;
35056;SDS011;21241;51.828;19.574;2023-11-22T03:40:18;10.00;;;9.20;;
35056;SDS011;21241;51.828;19.574;2023-11-22T03:42:46;11.40;;;10.50;;
35056;SDS011;21241;51.828;19.574;2023-11-22T03:45:15;8.80;;;8.10;;
35056;SDS011;21241;51.828;19.574;2023-11-22T03:47:42;10.30;;;9.50;;
35056;SDS011;21241;51.828;19.574;2023-11-22T03:50:10;9.20;;;8.50;;
35056;SDS011;21241;51.828;19.574;2023-11-22T03:52:39;9.80;;;9.00;;
35056;SDS011;21241;51.828;19.574;2023-11-22T03:55:07;8.50;;;7.70;;
35056;SDS011;21241;51.828;19.574;2023-11-22T03:57:35;9.10;;;8.30;;
35056;SDS011;21241;51.828;19.574;2023-11-22T04:00:03;8.70;;;8.00;;
35056;SDS011;21241;51.828;19.574;2023-11-22T04:02:39;9.20;;;8.40;;
35056;SDS011;21241;51.828;19.574;2023-11-22T04:05:08;8.70;;;8.00;;
35056;SDS011;21241;51.828;19.574;2023-11-22T04:07:39;9.10;;;8.30;;
35056;SDS011;21241;51.828;19.574;2023-11-22T04:10:07;10.10;;;9.30;;
35056;SDS011;21241;51.828;19.574;2023-11-22T04:12:36;9.30;;;8.40;;
35056;SDS011;21241;51.828;19.574;2023-11-22T04:15:05;10.40;;;9.60;;
35056;SDS011;21241;51.828;19.574;2023-11-22T04:17:37;8.90;;;8.10;;
35056;SDS011;21241;51.828;19.574;2023-11-22T04:20:06;10.80;;;9.90;;
35056;SDS011;21241;51.828;19.574;2023-11-22T04:22:37;9.50;;;8.70;;
35056;SDS011;21241;51.828;19.574;2023-11-22T04:25:05;9.10;;;8.40;;
35056;SDS011;21241;51.828;19.574;2023-11-22T04:27:34;10.60;;;9.80;;
35056;SDS011;21241;51.828;19.574;2023-11-22T04:30:02;9.80;;;8.80;;
35056;SDS011;21241;51.828;19.574;2023-11-22T04:32:30;11.10;;;10.30;;
35056;SDS011;21241;51.828;19.574;2023-11-22T04:35:00;8.90;;;8.10;;
35056;SDS011;21241;51.828;19.574;2023-11-22T04:37:28;8.80;;;7.90;;
35056;SDS011;21241;51.828;19.574;2023-11-22T04:39:59;12.40;;;8.90;;
35056;SDS011;21241;51.828;19.574;2023-11-22T04:42:28;9.10;;;8.30;;
35056;SDS011;21241;51.828;19.574;2023-11-22T04:44:56;9.30;;;8.50;;
35056;SDS011;21241;51.828;19.574;2023-11-22T04:47:24;8.60;;;7.80;;
35056;SDS011;21241;51.828;19.574;2023-11-22T04:49:53;8.60;;;7.90;;
35056;SDS011;21241;51.828;19.574;2023-11-22T04:52:21;8.30;;;7.60;;
35056;SDS011;21241;51.828;19.574;2023-11-22T04:54:48;8.60;;;7.80;;
35056;SDS011;21241;51.828;19.574;2023-11-22T04:57:16;9.00;;;8.20;;
35056;SDS011;21241;51.828;19.574;2023-11-22T04:59:45;8.30;;;7.50;;
35056;SDS011;21241;51.828;19.574;2023-11-22T05:02:13;9.00;;;8.20;;
35056;SDS011;21241;51.828;19.574;2023-11-22T05:04:41;7.70;;;7.10;;
35056;SDS011;21241;51.828;19.574;2023-11-22T05:07:10;8.30;;;7.60;;
35056;SDS011;21241;51.828;19.574;2023-11-22T05:09:38;8.40;;;7.70;;
35056;SDS011;21241;51.828;19.574;2023-11-22T05:12:06;8.00;;;7.40;;
35056;SDS011;21241;51.828;19.574;2023-11-22T05:14:34;8.80;;;8.10;;
35056;SDS011;21241;51.828;19.574;2023-11-22T05:17:02;8.60;;;7.90;;
35056;SDS011;21241;51.828;19.574;2023-11-22T05:19:30;8.30;;;7.60;;
35056;SDS011;21241;51.828;19.574;2023-11-22T05:21:59;9.10;;;8.30;;
35056;SDS011;21241;51.828;19.574;2023-11-22T05:24:27;8.30;;;7.60;;
35056;SDS011;21241;51.828;19.574;2023-11-22T05:26:55;8.10;;;7.40;;
35056;SDS011;21241;51.828;19.574;2023-11-22T05:29:23;7.90;;;7.20;;
35056;SDS011;21241;51.828;19.574;2023-11-22T05:31:55;7.30;;;6.70;;
35056;SDS011;21241;51.828;19.574;2023-11-22T05:34:23;7.90;;;7.30;;
35056;SDS011;21241;51.828;19.574;2023-11-22T05:36:52;7.80;;;7.10;;
35056;SDS011;21241;51.828;19.574;2023-11-22T05:39:20;8.00;;;7.30;;
35056;SDS011;21241;51.828;19.574;2023-11-22T05:41:50;7.80;;;7.20;;
35056;SDS011;21241;51.828;19.574;2023-11-22T05:44:19;8.20;;;7.50;;
35056;SDS011;21241;51.828;19.574;2023-11-22T05:46:47;8.10;;;7.30;;
35056;SDS011;21241;51.828;19.574;2023-11-22T05:49:15;9.00;;;8.20;;
35056;SDS011;21241;51.828;19.574;2023-11-22T05:51:43;8.60;;;7.80;;
35056;SDS011;21241;51.828;19.574;2023-11-22T05:54:11;8.10;;;7.40;;
35056;SDS011;21241;51.828;19.574;2023-11-22T05:56:40;8.70;;;7.90;;
35056;SDS011;21241;51.828;19.574;2023-11-22T05:59:08;8.30;;;7.60;;
35056;SDS011;21241;51.828;19.574;2023-11-22T06:01:36;8.00;;;7.30;;
35056;SDS011;21241;51.828;19.574;2023-11-22T06:04:04;9.20;;;8.40;;
35056;SDS011;21241;51.828;19.574;2023-11-22T06:06:32;8.50;;;7.80;;
35056;SDS011;21241;51.828;19.574;2023-11-22T06:09:00;8.20;;;7.50;;
35056;SDS011;21241;51.828;19.574;2023-11-22T06:11:29;8.10;;;7.40;;
35056;SDS011;21241;51.828;19.574;2023-11-22T06:13:58;8.60;;;7.90;;
35056;SDS011;21241;51.828;19.574;2023-11-22T06:16:26;7.70;;;7.10;;
35056;SDS011;21241;51.828;19.574;2023-11-22T06:18:54;7.80;;;7.10;;
35056;SDS011;21241;51.828;19.574;2023-11-22T06:21:23;7.80;;;7.10;;
35056;SDS011;21241;51.828;19.574;2023-11-22T06:23:54;8.80;;;8.00;;
35056;SDS011;21241;51.828;19.574;2023-11-22T06:26:26;7.20;;;6.60;;
35056;SDS011;21241;51.828;19.574;2023-11-22T06:28:54;7.20;;;6.60;;
35056;SDS011;21241;51.828;19.574;2023-11-22T06:31:23;8.30;;;7.60;;
35056;SDS011;21241;51.828;19.574;2023-11-22T06:33:51;7.60;;;6.90;;
35056;SDS011;21241;51.828;19.574;2023-11-22T06:36:20;7.60;;;6.90;;
35056;SDS011;21241;51.828;19.574;2023-11-22T06:38:48;9.50;;;8.60;;
35056;SDS011;21241;51.828;19.574;2023-11-22T06:41:16;9.90;;;8.90;;
35056;SDS011;21241;51.828;19.574;2023-11-22T06:43:45;8.80;;;8.00;;
35056;SDS011;21241;51.828;19.574;2023-11-22T06:46:13;9.30;;;8.40;;
35056;SDS011;21241;51.828;19.574;2023-11-22T06:48:44;10.20;;;9.20;;
35056;SDS011;21241;51.828;19.574;2023-11-22T06:51:15;10.20;;;9.30;;
35056;SDS011;21241;51.828;19.574;2023-11-22T06:53:44;10.00;;;9.00;;
35056;SDS011;21241;51.828;19.574;2023-11-22T06:56:13;11.70;;;10.20;;
35056;SDS011;21241;51.828;19.574;2023-11-22T06:58:42;10.30;;;9.30;;
35056;SDS011;21241;51.828;19.574;2023-11-22T07:01:10;10.50;;;9.50;;
35056;SDS011;21241;51.828;19.574;2023-11-22T07:03:41;10.50;;;9.50;;
35056;SDS011;21241;51.828;19.574;2023-11-22T07:06:09;11.60;;;10.50;;
35056;SDS011;21241;51.828;19.574;2023-11-22T07:08:38;10.40;;;9.50;;
35056;SDS011;21241;51.828;19.574;2023-11-22T07:11:05;10.00;;;9.00;;
35056;SDS011;21241;51.828;19.574;2023-11-22T07:13:37;10.40;;;9.50;;
35056;SDS011;21241;51.828;19.574;2023-11-22T07:16:07;10.60;;;9.60;;
35056;SDS011;21241;51.828;19.574;2023-11-22T07:18:35;9.40;;;8.60;;
35056;SDS011;21241;51.828;19.574;2023-11-22T07:21:04;10.40;;;9.40;;
35056;SDS011;21241;51.828;19.574;2023-11-22T07:23:33;11.50;;;10.40;;
35056;SDS011;21241;51.828;19.574;2023-11-22T07:26:01;11.60;;;9.90;;
35056;SDS011;21241;51.828;19.574;2023-11-22T07:28:31;10.40;;;9.50;;
35056;SDS011;21241;51.828;19.574;2023-11-22T07:30:58;10.10;;;9.20;;
35056;SDS011;21241;51.828;19.574;2023-11-22T07:33:26;10.90;;;9.90;;
35056;SDS011;21241;51.828;19.574;2023-11-22T07:35:54;10.70;;;9.70;;
35056;SDS011;21241;51.828;19.574;2023-11-22T07:38:22;10.60;;;9.60;;
35056;SDS011;21241;51.828;19.574;2023-11-22T07:40:51;11.50;;;10.50;;
35056;SDS011;21241;51.828;19.574;2023-11-22T07:43:19;12.80;;;11.50;;
35056;SDS011;21241;51.828;19.574;2023-11-22T07:45:47;12.20;;;11.00;;
35056;SDS011;21241;51.828;19.574;2023-11-22T07:48:16;11.80;;;10.70;;
35056;SDS011;21241;51.828;19.574;2023-11-22T07:50:45;10.80;;;9.90;;
35056;SDS011;21241;51.828;19.574;2023-11-22T07:53:17;11.80;;;10.90;;
35056;SDS011;21241;51.828;19.574;2023-11-22T07:55:46;10.40;;;9.40;;
35056;SDS011;21241;51.828;19.574;2023-11-22T07:58:14;11.30;;;10.20;;
35056;SDS011;21241;51.828;19.574;2023-11-22T08:00:43;11.00;;;10.10;;
35056;SDS011;21241;51.828;19.574;2023-11-22T08:03:13;10.70;;;9.90;;
35056;SDS011;21241;51.828;19.574;2023-11-22T08:05:46;11.70;;;10.80;;
35056;SDS011;21241;51.828;19.574;2023-11-22T08:08:16;12.50;;;11.50;;
35056;SDS011;21241;51.828;19.574;2023-11-22T08:10:44;11.50;;;10.60;;
35056;SDS011;21241;51.828;19.574;2023-11-22T08:13:12;12.10;;;11.00;;
35056;SDS011;21241;51.828;19.574;2023-11-22T08:15:40;12.10;;;11.00;;
35056;SDS011;21241;51.828;19.574;2023-11-22T08:18:08;11.60;;;10.40;;
35056;SDS011;21241;51.828;19.574;2023-11-22T08:20:38;13.60;;;12.30;;
35056;SDS011;21241;51.828;19.574;2023-11-22T08:23:06;10.80;;;9.80;;
35056;SDS011;21241;51.828;19.574;2023-11-22T08:25:34;12.60;;;11.60;;
35056;SDS011;21241;51.828;19.574;2023-11-22T08:28:03;12.10;;;10.90;;
35056;SDS011;21241;51.828;19.574;2023-11-22T08:30:31;11.50;;;10.50;;
35056;SDS011;21241;51.828;19.574;2023-11-22T08:33:03;12.40;;;9.80;;
35056;SDS011;21241;51.828;19.574;2023-11-22T08:35:31;11.60;;;10.70;;
35056;SDS011;21241;51.828;19.574;2023-11-22T08:37:59;10.40;;;9.40;;
35056;SDS011;21241;51.828;19.574;2023-11-22T08:40:30;12.50;;;11.40;;
35056;SDS011;21241;51.828;19.574;2023-11-22T08:42:58;11.90;;;10.80;;
35056;SDS011;21241;51.828;19.574;2023-11-22T08:45:26;11.30;;;10.40;;
35056;SDS011;21241;51.828;19.574;2023-11-22T08:47:57;10.60;;;9.60;;
35056;SDS011;21241;51.828;19.574;2023-11-22T08:50:32;11.60;;;10.70;;
35056;SDS011;21241;51.828;19.574;2023-11-22T08:53:00;10.80;;;9.90;;
35056;SDS011;21241;51.828;19.574;2023-11-22T08:55:28;11.60;;;10.60;;
35056;SDS011;21241;51.828;19.574;2023-11-22T08:57:56;11.90;;;11.00;;
35056;SDS011;21241;51.828;19.574;2023-11-22T09:00:24;10.50;;;9.60;;
35056;SDS011;21241;51.828;19.574;2023-11-22T09:02:55;11.30;;;10.40;;
35056;SDS011;21241;51.828;19.574;2023-11-22T09:05:24;10.70;;;9.80;;
35056;SDS011;21241;51.828;19.574;2023-11-22T09:07:52;11.00;;;10.10;;
35056;SDS011;21241;51.828;19.574;2023-11-22T09:10:23;10.70;;;9.60;;
35056;SDS011;21241;51.828;19.574;2023-11-22T09:12:51;11.80;;;10.40;;
35056;SDS011;21241;51.828;19.574;2023-11-22T09:15:19;11.20;;;10.20;;
35056;SDS011;21241;51.828;19.574;2023-11-22T09:17:54;11.00;;;10.00;;
35056;SDS011;21241;51.828;19.574;2023-11-22T09:20:23;11.10;;;10.20;;
35056;SDS011;21241;51.828;19.574;2023-11-22T09:22:52;12.10;;;11.10;;
35056;SDS011;21241;51.828;19.574;2023-11-22T09:25:22;11.00;;;10.10;;
35056;SDS011;21241;51.828;19.574;2023-11-22T09:27:54;11.90;;;10.90;;
35056;SDS011;21241;51.828;19.574;2023-11-22T09:30:24;10.60;;;9.70;;
35056;SDS011;21241;51.828;19.574;2023-11-22T09:35:39;10.30;;;9.40;;
35056;SDS011;21241;51.828;19.574;2023-11-22T09:38:08;12.50;;;11.50;;
35056;SDS011;21241;51.828;19.574;2023-11-22T09:40:41;11.90;;;10.80;;
35056;SDS011;21241;51.828;19.574;2023-11-22T09:43:09;13.40;;;12.30;;
35056;SDS011;21241;51.828;19.574;2023-11-22T09:45:38;12.60;;;11.50;;
35056;SDS011;21241;51.828;19.574;2023-11-22T09:48:20;12.40;;;11.40;;
35056;SDS011;21241;51.828;19.574;2023-11-22T09:53:40;12.90;;;11.80;;
35056;SDS011;21241;51.828;19.574;2023-11-22T09:56:12;12.70;;;11.50;;
35056;SDS011;21241;51.828;19.574;2023-11-22T09:58:43;13.90;;;12.70;;
35056;SDS011;21241;51.828;19.574;2023-11-22T10:01:12;14.30;;;13.10;;
35056;SDS011;21241;51.828;19.574;2023-11-22T10:03:43;12.90;;;11.60;;
35056;SDS011;21241;51.828;19.574;2023-11-22T10:06:12;13.30;;;12.10;;
35056;SDS011;21241;51.828;19.574;2023-11-22T10:08:42;11.90;;;10.90;;
35056;SDS011;21241;51.828;19.574;2023-11-22T10:11:16;12.40;;;11.40;;
35056;SDS011;21241;51.828;19.574;2023-11-22T10:13:50;11.80;;;10.70;;
35056;SDS011;21241;51.828;19.574;2023-11-22T10:16:19;12.60;;;11.60;;
35056;SDS011;21241;51.828;19.574;2023-11-22T10:18:49;12.80;;;11.70;;
35056;SDS011;21241;51.828;19.574;2023-11-22T10:21:27;11.90;;;10.80;;
35056;SDS011;21241;51.828;19.574;2023-11-22T10:24:01;13.10;;;11.90;;
35056;SDS011;21241;51.828;19.574;2023-11-22T10:26:31;13.30;;;12.00;;
35056;SDS011;21241;51.828;19.574;2023-11-22T10:28:59;12.30;;;11.20;;
35056;SDS011;21241;51.828;19.574;2023-11-22T10:31:27;11.90;;;11.00;;
35056;SDS011;21241;51.828;19.574;2023-11-22T10:33:56;12.80;;;11.60;;
35056;SDS011;21241;51.828;19.574;2023-11-22T10:36:26;11.20;;;10.10;;
35056;SDS011;21241;51.828;19.574;2023-11-22T10:38:55;12.00;;;10.90;;
35056;SDS011;21241;51.828;19.574;2023-11-22T10:41:24;10.50;;;9.60;;
35056;SDS011;21241;51.828;19.574;2023-11-22T10:43:52;9.60;;;8.70;;
35056;SDS011;21241;51.828;19.574;2023-11-22T10:46:27;10.50;;;9.60;;
35056;SDS011;21241;51.828;19.574;2023-11-22T10:48:56;10.80;;;9.90;;
35056;SDS011;21241;51.828;19.574;2023-11-22T10:51:35;11.10;;;10.20;;
35056;SDS011;21241;51.828;19.574;2023-11-22T10:54:08;11.30;;;10.30;;
35056;SDS011;21241;51.828;19.574;2023-11-22T10:56:38;10.90;;;10.00;;
35056;SDS011;21241;51.828;19.574;2023-11-22T10:59:18;10.50;;;9.60;;
35056;SDS011;21241;51.828;19.574;2023-11-22T11:01:47;8.70;;;7.90;;
35056;SDS011;21241;51.828;19.574;2023-11-22T11:04:24;15.30;;;13.90;;
35056;SDS011;21241;51.828;19.574;2023-11-22T11:06:57;10.50;;;9.60;;
35056;SDS011;21241;51.828;19.574;2023-11-22T11:09:25;10.80;;;9.90;;
35056;SDS011;21241;51.828;19.574;2023-11-22T11:12:00;9.90;;;9.00;;
35056;SDS011;21241;51.828;19.574;2023-11-22T11:14:35;10.70;;;9.90;;
35056;SDS011;21241;51.828;19.574;2023-11-22T11:17:04;11.00;;;10.10;;
35056;SDS011;21241;51.828;19.574;2023-11-22T11:19:33;10.30;;;9.40;;
35056;SDS011;21241;51.828;19.574;2023-11-22T11:22:02;10.10;;;9.30;;
35056;SDS011;21241;51.828;19.574;2023-11-22T11:24:37;10.50;;;9.60;;
35056;SDS011;21241;51.828;19.574;2023-11-22T11:27:07;10.50;;;9.40;;
35056;SDS011;21241;51.828;19.574;2023-11-22T11:29:36;9.70;;;9.00;;
35056;SDS011;21241;51.828;19.574;2023-11-22T11:32:12;9.80;;;9.00;;
35056;SDS011;21241;51.828;19.574;2023-11-22T11:34:47;9.30;;;8.50;;
35056;SDS011;21241;51.828;19.574;2023-11-22T11:37:20;9.60;;;8.80;;
35056;SDS011;21241;51.828;19.574;2023-11-22T11:39:48;8.30;;;7.60;;
35056;SDS011;21241;51.828;19.574;2023-11-22T11:42:17;9.40;;;8.60;;
35056;SDS011;21241;51.828;19.574;2023-11-22T11:45:04;11.10;;;10.10;;
35056;SDS011;21241;51.828;19.574;2023-11-22T11:47:35;11.20;;;10.30;;
35056;SDS011;21241;51.828;19.574;2023-11-22T11:50:03;11.30;;;10.40;;
35056;SDS011;21241;51.828;19.574;2023-11-22T11:52:32;11.30;;;10.30;;
35056;SDS011;21241;51.828;19.574;2023-11-22T11:55:00;11.10;;;10.20;;
35056;SDS011;21241;51.828;19.574;2023-11-22T11:57:30;10.70;;;9.80;;
35056;SDS011;21241;51.828;19.574;2023-11-22T12:00:00;9.40;;;8.60;;
35056;SDS011;21241;51.828;19.574;2023-11-22T12:02:38;10.90;;;9.90;;
35056;SDS011;21241;51.828;19.574;2023-11-22T12:05:06;12.20;;;11.10;;
35056;SDS011;21241;51.828;19.574;2023-11-22T12:07:37;11.00;;;10.00;;
35056;SDS011;21241;51.828;19.574;2023-11-22T12:10:06;10.90;;;10.00;;
35056;SDS011;21241;51.828;19.574;2023-11-22T12:12:34;10.90;;;10.00;;
35056;SDS011;21241;51.828;19.574;2023-11-22T12:15:04;12.20;;;11.20;;
35056;SDS011;21241;51.828;19.574;2023-11-22T12:17:33;12.60;;;11.60;;
35056;SDS011;21241;51.828;19.574;2023-11-22T12:20:11;12.80;;;11.70;;
35056;SDS011;21241;51.828;19.574;2023-11-22T12:22:43;11.00;;;10.10;;
35056;SDS011;21241;51.828;19.574;2023-11-22T12:25:12;11.30;;;10.40;;
35056;SDS011;21241;51.828;19.574;2023-11-22T12:27:42;11.30;;;10.40;;
35056;SDS011;21241;51.828;19.574;2023-11-22T12:30:27;11.70;;;10.80;;
35056;SDS011;21241;51.828;19.574;2023-11-22T12:33:01;11.00;;;10.00;;
35056;SDS011;21241;51.828;19.574;2023-11-22T12:35:31;10.90;;;10.00;;
35056;SDS011;21241;51.828;19.574;2023-11-22T12:38:04;10.70;;;9.70;;
35056;SDS011;21241;51.828;19.574;2023-11-22T12:40:34;11.40;;;10.50;;
35056;SDS011;21241;51.828;19.574;2023-11-22T12:43:03;12.50;;;11.40;;
35056;SDS011;21241;51.828;19.574;2023-11-22T12:45:32;11.70;;;10.70;;
35056;SDS011;21241;51.828;19.574;2023-11-22T12:48:20;11.40;;;10.50;;
35056;SDS011;21241;51.828;19.574;2023-11-22T12:50:51;11.60;;;10.60;;
35056;SDS011;21241;51.828;19.574;2023-11-22T12:53:20;12.50;;;11.40;;
35056;SDS011;21241;51.828;19.574;2023-11-22T12:55:54;12.30;;;11.30;;
35056;SDS011;21241;51.828;19.574;2023-11-22T12:58:23;11.70;;;10.70;;
35056;SDS011;21241;51.828;19.574;2023-11-22T13:00:52;11.10;;;10.20;;
35056;SDS011;21241;51.828;19.574;2023-11-22T13:03:29;11.80;;;10.70;;
35056;SDS011;21241;51.828;19.574;2023-11-22T13:05:57;14.40;;;13.20;;
35056;SDS011;21241;51.828;19.574;2023-11-22T13:08:25;13.60;;;12.50;;
35056;SDS011;21241;51.828;19.574;2023-11-22T13:10:58;13.00;;;11.80;;
35056;SDS011;21241;51.828;19.574;2023-11-22T13:13:27;12.60;;;11.50;;
35056;SDS011;21241;51.828;19.574;2023-11-22T13:15:55;12.00;;;10.90;;
35056;SDS011;21241;51.828;19.574;2023-11-22T13:18:25;12.00;;;11.00;;
35056;SDS011;21241;51.828;19.574;2023-11-22T13:20:54;11.20;;;10.20;;
35056;SDS011;21241;51.828;19.574;2023-11-22T13:23:22;11.40;;;10.40;;
35056;SDS011;21241;51.828;19.574;2023-11-22T13:25:50;11.60;;;10.60;;
35056;SDS011;21241;51.828;19.574;2023-11-22T13:28:18;11.80;;;10.80;;
35056;SDS011;21241;51.828;19.574;2023-11-22T13:30:46;11.50;;;10.50;;
35056;SDS011;21241;51.828;19.574;2023-11-22T13:33:16;10.80;;;9.90;;
35056;SDS011;21241;51.828;19.574;2023-11-22T13:35:44;10.90;;;10.00;;
35056;SDS011;21241;51.828;19.574;2023-11-22T13:38:13;10.50;;;9.60;;
35056;SDS011;21241;51.828;19.574;2023-11-22T13:40:43;11.50;;;10.40;;
35056;SDS011;21241;51.828;19.574;2023-11-22T13:43:13;11.40;;;10.30;;
35056;SDS011;21241;51.828;19.574;2023-11-22T13:45:41;10.60;;;9.70;;
35056;SDS011;21241;51.828;19.574;2023-11-22T13:48:10;11.00;;;10.10;;
35056;SDS011;21241;51.828;19.574;2023-11-22T13:50:39;11.30;;;10.30;;
35056;SDS011;21241;51.828;19.574;2023-11-22T13:53:08;10.80;;;9.90;;
35056;SDS011;21241;51.828;19.574;2023-11-22T13:55:38;12.30;;;11.20;;
35056;SDS011;21241;51.828;19.574;2023-11-22T13:58:06;13.60;;;12.50;;
35056;SDS011;21241;51.828;19.574;2023-11-22T14:00:36;14.40;;;13.20;;
35056;SDS011;21241;51.828;19.574;2023-11-22T14:03:06;17.30;;;15.80;;
35056;SDS011;21241;51.828;19.574;2023-11-22T14:05:37;16.50;;;15.10;;
35056;SDS011;21241;51.828;19.574;2023-11-22T14:08:07;15.40;;;14.00;;
35056;SDS011;21241;51.828;19.574;2023-11-22T14:10:35;14.10;;;12.80;;
35056;SDS011;21241;51.828;19.574;2023-11-22T14:13:04;13.70;;;12.50;;
35056;SDS011;21241;51.828;19.574;2023-11-22T14:15:32;13.20;;;12.00;;
35056;SDS011;21241;51.828;19.574;2023-11-22T14:18:00;13.70;;;12.50;;
35056;SDS011;21241;51.828;19.574;2023-11-22T14:20:29;16.00;;;14.60;;
35056;SDS011;21241;51.828;19.574;2023-11-22T14:22:58;16.00;;;14.70;;
35056;SDS011;21241;51.828;19.574;2023-11-22T14:25:26;17.60;;;15.90;;
35056;SDS011;21241;51.828;19.574;2023-11-22T14:27:54;19.40;;;17.70;;
35056;SDS011;21241;51.828;19.574;2023-11-22T14:30:24;20.40;;;17.20;;
35056;SDS011;21241;51.828;19.574;2023-11-22T14:32:56;19.60;;;17.80;;
35056;SDS011;21241;51.828;19.574;2023-11-22T14:35:26;18.60;;;17.00;;